Strona główna
Zdjęcia satelitarne 10-dni prognozyKlimatMeteorologia morska Cyklony Błyskawica LotniskoFAQ Gazetka O
Pogoda : Europa Afryka Ameryka Północna Ameryka Południowa Azja Australia-Oceania Inny
Języki Kontakt

Albert, Francja

Szerokość geograficzna: 49-58-21N, Długość geograficzna: 002-41-29E, wysokość: 111 m


METAR: LFAQ 300930Z AUTO 27014KT 250V310 9999 FEW028/// SCT042/// BKN076/// ///TCU 16/09 Q1017
TAF: LFAQ 300800Z 3009/3018 30010KT 9999 BKN020 TEMPO 3009/3013 5000 SHRA BKN015TCU

czas: 12:05 (10:05 UTC)

Aktualna obserwacja pogody

Raport powstał 35 minut temu, godzina 09:30 UTC
Wiatr 14 kt od zachód, zmienny między zachodnio-południowy zachód i północny zachód
Temperatura 16°C
Wilgotność 63%
Ciśnienie 1017 hPa
Widzialność 10 km lub więcej

Jednostka miary

Prognoza

Raport powstał 2 godziny i 5 minut temu, godzina 08:00 UTC
Prognoza ważna od 30 godzina 09 UTC do 30 godzina 18 UTC
Wiatr 10 kt od zachodnio-północny zachód
Widzialność 10 km lub więcej
Przerywane chmury na wysokości 2000 ft
Przejściowo
od 30 godzina 09 UTC do 30 godzina 13 UTC
Widzialność: 5000 m
Przerywane chmury na wysokości 1500 ft, Cumulusy wypiętrznone.
przelotny opad deszczu
Informacje na tej stronie internetowej podlegają klauzuli o wyłączeniu odpowiedzialności
Pogoda : Europa Afryka Ameryka Północna Ameryka Południowa Azja Australia-Oceania Inny
Zdjęcia satelitarne 10-dni prognozyKlimatMeteorologia morska Cyklony Błyskawica LotniskoFAQ Języki Kontakt Gazetka O